sensor_id;sensor_type;location;lat;lon;timestamp;temperature;humidity
10678;DHT22;5387;48.722;9.110;2023-07-29T00:01:43;16.50;99.90
10678;DHT22;5387;48.722;9.110;2023-07-29T00:04:10;16.50;99.90
10678;DHT22;5387;48.722;9.110;2023-07-29T00:06:36;16.60;99.90
10678;DHT22;5387;48.722;9.110;2023-07-29T00:09:03;16.50;99.90
10678;DHT22;5387;48.722;9.110;2023-07-29T00:11:30;16.50;99.90
10678;DHT22;5387;48.722;9.110;2023-07-29T00:14:00;16.50;99.90
10678;DHT22;5387;48.722;9.110;2023-07-29T00:16:27;16.50;99.90
10678;DHT22;5387;48.722;9.110;2023-07-29T00:18:54;16.50;99.90
10678;DHT22;5387;48.722;9.110;2023-07-29T00:21:20;16.40;99.90
10678;DHT22;5387;48.722;9.110;2023-07-29T00:23:47;16.40;99.90
10678;DHT22;5387;48.722;9.110;2023-07-29T00:26:14;16.40;99.90
10678;DHT22;5387;48.722;9.110;2023-07-29T00:28:41;16.40;99.90
10678;DHT22;5387;48.722;9.110;2023-07-29T00:31:09;16.40;99.90
10678;DHT22;5387;48.722;9.110;2023-07-29T00:33:36;16.40;99.90
10678;DHT22;5387;48.722;9.110;2023-07-29T00:36:03;16.30;99.90
10678;DHT22;5387;48.722;9.110;2023-07-29T00:38:30;16.40;99.90
10678;DHT22;5387;48.722;9.110;2023-07-29T00:40:57;16.40;99.90
10678;DHT22;5387;48.722;9.110;2023-07-29T00:43:24;16.30;99.90
10678;DHT22;5387;48.722;9.110;2023-07-29T00:45:51;16.30;99.90
10678;DHT22;5387;48.722;9.110;2023-07-29T00:48:19;16.50;99.90
10678;DHT22;5387;48.722;9.110;2023-07-29T00:50:47;16.40;99.90
10678;DHT22;5387;48.722;9.110;2023-07-29T00:53:13;16.50;99.90
10678;DHT22;5387;48.722;9.110;2023-07-29T00:55:41;16.50;99.90
10678;DHT22;5387;48.722;9.110;2023-07-29T00:58:08;16.40;99.90
10678;DHT22;5387;48.722;9.110;2023-07-29T01:00:34;16.50;99.90
10678;DHT22;5387;48.722;9.110;2023-07-29T01:03:02;16.60;99.90
10678;DHT22;5387;48.722;9.110;2023-07-29T01:05:34;16.50;99.90
10678;DHT22;5387;48.722;9.110;2023-07-29T01:08:07;16.60;99.90
10678;DHT22;5387;48.722;9.110;2023-07-29T01:10:42;16.60;99.90
10678;DHT22;5387;48.722;9.110;2023-07-29T01:13:18;16.60;99.90
10678;DHT22;5387;48.722;9.110;2023-07-29T01:15:52;16.60;99.90
10678;DHT22;5387;48.722;9.110;2023-07-29T01:18:22;16.60;99.90
10678;DHT22;5387;48.722;9.110;2023-07-29T01:20:53;16.60;99.90
10678;DHT22;5387;48.722;9.110;2023-07-29T01:23:25;16.60;99.90
10678;DHT22;5387;48.722;9.110;2023-07-29T01:25:52;16.60;99.90
10678;DHT22;5387;48.722;9.110;2023-07-29T01:28:19;16.50;99.90
10678;DHT22;5387;48.722;9.110;2023-07-29T01:30:49;16.50;99.90
10678;DHT22;5387;48.722;9.110;2023-07-29T01:33:25;16.50;99.90
10678;DHT22;5387;48.722;9.110;2023-07-29T01:35:57;16.50;99.90
10678;DHT22;5387;48.722;9.110;2023-07-29T01:38:29;16.50;99.90
10678;DHT22;5387;48.722;9.110;2023-07-29T01:40:59;16.40;99.90
10678;DHT22;5387;48.722;9.110;2023-07-29T01:43:27;16.50;99.90
10678;DHT22;5387;48.722;9.110;2023-07-29T01:45:54;16.50;99.90
10678;DHT22;5387;48.722;9.110;2023-07-29T01:48:21;16.40;99.90
10678;DHT22;5387;48.722;9.110;2023-07-29T01:50:48;16.50;99.90
10678;DHT22;5387;48.722;9.110;2023-07-29T01:53:15;16.50;99.90
10678;DHT22;5387;48.722;9.110;2023-07-29T01:55:44;16.70;99.90
10678;DHT22;5387;48.722;9.110;2023-07-29T01:58:11;16.50;99.90
10678;DHT22;5387;48.722;9.110;2023-07-29T02:00:38;16.50;99.90
10678;DHT22;5387;48.722;9.110;2023-07-29T02:03:05;16.50;99.90
10678;DHT22;5387;48.722;9.110;2023-07-29T02:05:32;16.40;99.90
10678;DHT22;5387;48.722;9.110;2023-07-29T02:07:59;16.40;99.90
10678;DHT22;5387;48.722;9.110;2023-07-29T02:10:25;16.40;99.90
10678;DHT22;5387;48.722;9.110;2023-07-29T02:12:53;16.40;99.90
10678;DHT22;5387;48.722;9.110;2023-07-29T02:15:20;16.30;99.90
10678;DHT22;5387;48.722;9.110;2023-07-29T02:17:50;16.30;99.90
10678;DHT22;5387;48.722;9.110;2023-07-29T02:20:17;16.30;99.90
10678;DHT22;5387;48.722;9.110;2023-07-29T02:22:44;16.30;99.90
10678;DHT22;5387;48.722;9.110;2023-07-29T02:25:11;16.40;99.90
10678;DHT22;5387;48.722;9.110;2023-07-29T02:27:38;16.30;99.90
10678;DHT22;5387;48.722;9.110;2023-07-29T02:30:07;16.40;99.90
10678;DHT22;5387;48.722;9.110;2023-07-29T02:32:35;16.40;99.90
10678;DHT22;5387;48.722;9.110;2023-07-29T02:35:02;16.30;99.90
10678;DHT22;5387;48.722;9.110;2023-07-29T02:37:28;16.40;99.90
10678;DHT22;5387;48.722;9.110;2023-07-29T02:39:55;16.30;99.90
10678;DHT22;5387;48.722;9.110;2023-07-29T02:42:22;16.40;99.90
10678;DHT22;5387;48.722;9.110;2023-07-29T02:44:49;16.40;99.90
10678;DHT22;5387;48.722;9.110;2023-07-29T02:47:17;16.40;99.90
10678;DHT22;5387;48.722;9.110;2023-07-29T02:49:44;16.40;99.90
10678;DHT22;5387;48.722;9.110;2023-07-29T02:52:10;16.40;99.90
10678;DHT22;5387;48.722;9.110;2023-07-29T02:54:37;16.40;99.90
10678;DHT22;5387;48.722;9.110;2023-07-29T02:57:04;16.40;99.90
10678;DHT22;5387;48.722;9.110;2023-07-29T02:59:31;16.40;99.90
10678;DHT22;5387;48.722;9.110;2023-07-29T03:01:58;16.50;99.90
10678;DHT22;5387;48.722;9.110;2023-07-29T03:04:26;16.40;99.90
10678;DHT22;5387;48.722;9.110;2023-07-29T03:06:53;16.40;99.90
10678;DHT22;5387;48.722;9.110;2023-07-29T03:09:19;16.30;99.90
10678;DHT22;5387;48.722;9.110;2023-07-29T03:11:46;16.30;99.90
10678;DHT22;5387;48.722;9.110;2023-07-29T03:14:13;16.30;99.90
10678;DHT22;5387;48.722;9.110;2023-07-29T03:16:40;16.30;99.90
10678;DHT22;5387;48.722;9.110;2023-07-29T03:19:06;16.30;99.90
10678;DHT22;5387;48.722;9.110;2023-07-29T03:21:34;16.30;99.90
10678;DHT22;5387;48.722;9.110;2023-07-29T03:24:01;16.40;99.90
10678;DHT22;5387;48.722;9.110;2023-07-29T03:26:28;16.30;99.90
10678;DHT22;5387;48.722;9.110;2023-07-29T03:28:55;16.30;99.90
10678;DHT22;5387;48.722;9.110;2023-07-29T03:31:22;16.30;99.90
10678;DHT22;5387;48.722;9.110;2023-07-29T03:33:48;16.40;99.90
10678;DHT22;5387;48.722;9.110;2023-07-29T03:36:15;16.40;99.90
10678;DHT22;5387;48.722;9.110;2023-07-29T03:38:43;16.60;99.90
10678;DHT22;5387;48.722;9.110;2023-07-29T03:41:11;16.50;99.90
10678;DHT22;5387;48.722;9.110;2023-07-29T03:43:37;16.40;99.90
10678;DHT22;5387;48.722;9.110;2023-07-29T03:46:04;16.50;99.90
10678;DHT22;5387;48.722;9.110;2023-07-29T03:48:31;16.40;99.90
10678;DHT22;5387;48.722;9.110;2023-07-29T03:50:58;16.40;99.90
10678;DHT22;5387;48.722;9.110;2023-07-29T03:53:25;16.50;99.90
10678;DHT22;5387;48.722;9.110;2023-07-29T03:55:53;16.50;99.90
10678;DHT22;5387;48.722;9.110;2023-07-29T03:58:20;16.50;99.90
10678;DHT22;5387;48.722;9.110;2023-07-29T04:00:47;16.60;99.90
10678;DHT22;5387;48.722;9.110;2023-07-29T04:03:14;16.60;99.90
10678;DHT22;5387;48.722;9.110;2023-07-29T04:05:41;16.50;99.90
10678;DHT22;5387;48.722;9.110;2023-07-29T04:08:08;16.60;99.90
10678;DHT22;5387;48.722;9.110;2023-07-29T04:10:35;16.50;99.90
10678;DHT22;5387;48.722;9.110;2023-07-29T04:13:04;16.50;99.90
10678;DHT22;5387;48.722;9.110;2023-07-29T04:15:31;16.50;99.90
10678;DHT22;5387;48.722;9.110;2023-07-29T04:17:58;16.60;99.90
10678;DHT22;5387;48.722;9.110;2023-07-29T04:20:25;16.60;99.90
10678;DHT22;5387;48.722;9.110;2023-07-29T04:22:51;16.60;99.90
10678;DHT22;5387;48.722;9.110;2023-07-29T04:25:18;16.40;99.90
10678;DHT22;5387;48.722;9.110;2023-07-29T04:27:45;16.50;99.90
10678;DHT22;5387;48.722;9.110;2023-07-29T04:30:13;16.50;99.90
10678;DHT22;5387;48.722;9.110;2023-07-29T04:32:40;16.50;99.90
10678;DHT22;5387;48.722;9.110;2023-07-29T04:35:10;16.60;99.90
10678;DHT22;5387;48.722;9.110;2023-07-29T04:37:37;16.50;99.90
10678;DHT22;5387;48.722;9.110;2023-07-29T04:40:04;16.50;99.90
10678;DHT22;5387;48.722;9.110;2023-07-29T04:42:31;16.50;99.90
10678;DHT22;5387;48.722;9.110;2023-07-29T04:44:58;16.50;99.90
10678;DHT22;5387;48.722;9.110;2023-07-29T04:47:26;16.50;99.90
10678;DHT22;5387;48.722;9.110;2023-07-29T04:49:53;16.50;99.90
10678;DHT22;5387;48.722;9.110;2023-07-29T04:52:20;16.50;99.90
10678;DHT22;5387;48.722;9.110;2023-07-29T04:54:47;16.50;99.90
10678;DHT22;5387;48.722;9.110;2023-07-29T04:57:14;16.40;99.90
10678;DHT22;5387;48.722;9.110;2023-07-29T04:59:40;16.50;99.90
10678;DHT22;5387;48.722;9.110;2023-07-29T05:02:06;16.40;99.90
10678;DHT22;5387;48.722;9.110;2023-07-29T05:04:34;16.50;99.90
10678;DHT22;5387;48.722;9.110;2023-07-29T05:07:01;16.50;99.90
10678;DHT22;5387;48.722;9.110;2023-07-29T05:09:28;16.70;99.90
10678;DHT22;5387;48.722;9.110;2023-07-29T05:11:55;16.60;99.90
10678;DHT22;5387;48.722;9.110;2023-07-29T05:14:22;16.60;99.90
10678;DHT22;5387;48.722;9.110;2023-07-29T05:16:49;16.70;99.90
10678;DHT22;5387;48.722;9.110;2023-07-29T05:19:16;16.70;99.90
10678;DHT22;5387;48.722;9.110;2023-07-29T05:21:44;16.70;99.90
10678;DHT22;5387;48.722;9.110;2023-07-29T05:24:11;16.70;99.90
10678;DHT22;5387;48.722;9.110;2023-07-29T05:26:38;16.70;99.90
10678;DHT22;5387;48.722;9.110;2023-07-29T05:35:49;16.70;99.90
10678;DHT22;5387;48.722;9.110;2023-07-29T05:38:17;16.90;99.90
10678;DHT22;5387;48.722;9.110;2023-07-29T05:40:43;17.00;99.90
10678;DHT22;5387;48.722;9.110;2023-07-29T05:43:10;16.90;99.90
10678;DHT22;5387;48.722;9.110;2023-07-29T05:45:37;17.00;99.90
10678;DHT22;5387;48.722;9.110;2023-07-29T05:48:04;17.00;99.90
10678;DHT22;5387;48.722;9.110;2023-07-29T05:50:31;17.10;99.90
10678;DHT22;5387;48.722;9.110;2023-07-29T05:52:58;17.20;99.90
10678;DHT22;5387;48.722;9.110;2023-07-29T05:55:26;17.20;99.90
10678;DHT22;5387;48.722;9.110;2023-07-29T05:57:53;17.30;99.90
10678;DHT22;5387;48.722;9.110;2023-07-29T06:00:20;17.30;99.90
10678;DHT22;5387;48.722;9.110;2023-07-29T06:02:47;17.40;99.90
10678;DHT22;5387;48.722;9.110;2023-07-29T06:05:14;17.40;99.90
10678;DHT22;5387;48.722;9.110;2023-07-29T06:07:40;17.40;99.90
10678;DHT22;5387;48.722;9.110;2023-07-29T06:10:09;17.40;99.90
10678;DHT22;5387;48.722;9.110;2023-07-29T06:12:38;17.50;99.90
10678;DHT22;5387;48.722;9.110;2023-07-29T06:15:06;17.60;99.90
10678;DHT22;5387;48.722;9.110;2023-07-29T06:17:33;17.80;99.90
10678;DHT22;5387;48.722;9.110;2023-07-29T06:19:59;18.00;99.90
10678;DHT22;5387;48.722;9.110;2023-07-29T06:22:26;18.20;99.90
10678;DHT22;5387;48.722;9.110;2023-07-29T06:24:53;18.40;99.90
10678;DHT22;5387;48.722;9.110;2023-07-29T06:27:19;18.50;99.90
10678;DHT22;5387;48.722;9.110;2023-07-29T06:29:48;18.50;99.90
10678;DHT22;5387;48.722;9.110;2023-07-29T06:32:14;18.50;99.90
10678;DHT22;5387;48.722;9.110;2023-07-29T06:34:41;18.50;99.90
10678;DHT22;5387;48.722;9.110;2023-07-29T06:37:08;18.40;99.90
10678;DHT22;5387;48.722;9.110;2023-07-29T06:39:35;18.40;99.90
10678;DHT22;5387;48.722;9.110;2023-07-29T06:42:02;18.50;99.90
10678;DHT22;5387;48.722;9.110;2023-07-29T06:44:28;18.40;99.90
10678;DHT22;5387;48.722;9.110;2023-07-29T06:46:57;18.50;99.90
10678;DHT22;5387;48.722;9.110;2023-07-29T06:49:24;18.40;99.90
10678;DHT22;5387;48.722;9.110;2023-07-29T06:55:13;18.20;99.90
10678;DHT22;5387;48.722;9.110;2023-07-29T06:57:40;18.10;99.90
10678;DHT22;5387;48.722;9.110;2023-07-29T07:00:07;18.00;99.90
10678;DHT22;5387;48.722;9.110;2023-07-29T07:02:36;17.90;99.90
10678;DHT22;5387;48.722;9.110;2023-07-29T07:05:03;17.80;99.90
10678;DHT22;5387;48.722;9.110;2023-07-29T07:07:30;17.70;99.90
10678;DHT22;5387;48.722;9.110;2023-07-29T07:09:57;17.60;99.90
10678;DHT22;5387;48.722;9.110;2023-07-29T07:12:24;17.60;99.90
10678;DHT22;5387;48.722;9.110;2023-07-29T07:14:50;17.60;99.90
10678;DHT22;5387;48.722;9.110;2023-07-29T07:17:17;17.50;99.90
10678;DHT22;5387;48.722;9.110;2023-07-29T07:19:45;17.50;99.90
10678;DHT22;5387;48.722;9.110;2023-07-29T07:22:12;17.50;99.90
10678;DHT22;5387;48.722;9.110;2023-07-29T07:24:39;17.40;99.90
10678;DHT22;5387;48.722;9.110;2023-07-29T07:27:06;17.50;99.90
10678;DHT22;5387;48.722;9.110;2023-07-29T07:29:33;17.50;99.90
10678;DHT22;5387;48.722;9.110;2023-07-29T07:32:00;17.60;99.90
10678;DHT22;5387;48.722;9.110;2023-07-29T07:34:27;17.60;99.90
10678;DHT22;5387;48.722;9.110;2023-07-29T07:36:55;17.70;99.90
10678;DHT22;5387;48.722;9.110;2023-07-29T07:39:23;17.70;99.90
10678;DHT22;5387;48.722;9.110;2023-07-29T07:41:50;17.70;99.90
10678;DHT22;5387;48.722;9.110;2023-07-29T07:44:17;17.70;99.90
10678;DHT22;5387;48.722;9.110;2023-07-29T07:46:45;17.80;99.90
10678;DHT22;5387;48.722;9.110;2023-07-29T07:49:12;17.80;99.90
10678;DHT22;5387;48.722;9.110;2023-07-29T07:51:39;17.70;99.90
10678;DHT22;5387;48.722;9.110;2023-07-29T07:54:07;17.90;99.90
10678;DHT22;5387;48.722;9.110;2023-07-29T07:56:34;17.90;99.90
10678;DHT22;5387;48.722;9.110;2023-07-29T07:59:00;18.10;99.90
10678;DHT22;5387;48.722;9.110;2023-07-29T08:01:27;18.10;99.90
10678;DHT22;5387;48.722;9.110;2023-07-29T08:03:54;18.20;99.90
10678;DHT22;5387;48.722;9.110;2023-07-29T08:06:21;18.20;99.90
10678;DHT22;5387;48.722;9.110;2023-07-29T08:08:47;18.40;99.90
10678;DHT22;5387;48.722;9.110;2023-07-29T08:11:15;18.40;99.90
10678;DHT22;5387;48.722;9.110;2023-07-29T08:13:41;18.70;99.90
10678;DHT22;5387;48.722;9.110;2023-07-29T08:16:08;18.90;99.90
10678;DHT22;5387;48.722;9.110;2023-07-29T08:18:35;19.00;99.90
10678;DHT22;5387;48.722;9.110;2023-07-29T08:21:02;19.20;99.90
10678;DHT22;5387;48.722;9.110;2023-07-29T08:23:30;19.30;99.90
10678;DHT22;5387;48.722;9.110;2023-07-29T08:25:58;19.20;99.90
10678;DHT22;5387;48.722;9.110;2023-07-29T08:28:29;19.40;99.90
10678;DHT22;5387;48.722;9.110;2023-07-29T08:30:57;19.50;99.90
10678;DHT22;5387;48.722;9.110;2023-07-29T08:33:24;19.50;99.90
10678;DHT22;5387;48.722;9.110;2023-07-29T08:35:51;19.70;99.90
10678;DHT22;5387;48.722;9.110;2023-07-29T08:38:18;19.80;99.90
10678;DHT22;5387;48.722;9.110;2023-07-29T08:40:50;20.00;99.90
10678;DHT22;5387;48.722;9.110;2023-07-29T08:43:19;20.00;99.90
10678;DHT22;5387;48.722;9.110;2023-07-29T08:45:48;20.00;99.90
10678;DHT22;5387;48.722;9.110;2023-07-29T08:48:21;20.00;99.90
10678;DHT22;5387;48.722;9.110;2023-07-29T08:50:49;20.10;99.90
10678;DHT22;5387;48.722;9.110;2023-07-29T08:53:17;20.40;99.90
10678;DHT22;5387;48.722;9.110;2023-07-29T08:55:44;20.50;99.90
10678;DHT22;5387;48.722;9.110;2023-07-29T08:58:11;20.80;99.90
10678;DHT22;5387;48.722;9.110;2023-07-29T09:00:39;21.00;99.90
10678;DHT22;5387;48.722;9.110;2023-07-29T09:03:07;21.50;99.90
10678;DHT22;5387;48.722;9.110;2023-07-29T09:05:34;21.40;99.90
10678;DHT22;5387;48.722;9.110;2023-07-29T09:08:02;21.50;99.90
10678;DHT22;5387;48.722;9.110;2023-07-29T09:14:05;21.00;99.90
10678;DHT22;5387;48.722;9.110;2023-07-29T09:16:32;21.00;99.90
10678;DHT22;5387;48.722;9.110;2023-07-29T09:19:02;21.00;99.90
10678;DHT22;5387;48.722;9.110;2023-07-29T09:21:29;21.30;99.90
10678;DHT22;5387;48.722;9.110;2023-07-29T09:23:56;21.80;99.90
10678;DHT22;5387;48.722;9.110;2023-07-29T09:26:24;22.10;99.90
10678;DHT22;5387;48.722;9.110;2023-07-29T09:28:52;22.20;99.90
10678;DHT22;5387;48.722;9.110;2023-07-29T09:31:21;22.00;99.90
10678;DHT22;5387;48.722;9.110;2023-07-29T09:33:48;21.90;99.90
10678;DHT22;5387;48.722;9.110;2023-07-29T09:36:16;21.90;99.90
10678;DHT22;5387;48.722;9.110;2023-07-29T09:38:44;21.80;99.90
10678;DHT22;5387;48.722;9.110;2023-07-29T09:41:12;21.60;99.90
10678;DHT22;5387;48.722;9.110;2023-07-29T09:43:39;21.60;99.90
10678;DHT22;5387;48.722;9.110;2023-07-29T09:46:06;21.50;99.90
10678;DHT22;5387;48.722;9.110;2023-07-29T09:48:34;22.10;99.90
10678;DHT22;5387;48.722;9.110;2023-07-29T09:51:09;22.40;99.90
10678;DHT22;5387;48.722;9.110;2023-07-29T09:53:41;22.40;99.90
10678;DHT22;5387;48.722;9.110;2023-07-29T09:56:08;22.40;99.90
10678;DHT22;5387;48.722;9.110;2023-07-29T09:58:35;22.60;99.90
10678;DHT22;5387;48.722;9.110;2023-07-29T10:01:03;22.50;99.90
10678;DHT22;5387;48.722;9.110;2023-07-29T10:03:31;22.50;99.90
10678;DHT22;5387;48.722;9.110;2023-07-29T10:06:00;22.50;99.90
10678;DHT22;5387;48.722;9.110;2023-07-29T10:08:29;23.00;99.90
10678;DHT22;5387;48.722;9.110;2023-07-29T10:10:59;23.20;99.90
10678;DHT22;5387;48.722;9.110;2023-07-29T10:13:26;23.40;99.90
10678;DHT22;5387;48.722;9.110;2023-07-29T10:15:53;23.80;99.90
10678;DHT22;5387;48.722;9.110;2023-07-29T10:18:21;24.10;99.90
10678;DHT22;5387;48.722;9.110;2023-07-29T10:20:48;24.20;99.90
10678;DHT22;5387;48.722;9.110;2023-07-29T10:23:18;24.20;99.90
10678;DHT22;5387;48.722;9.110;2023-07-29T10:25:49;24.20;99.90
10678;DHT22;5387;48.722;9.110;2023-07-29T10:28:20;24.20;99.90
10678;DHT22;5387;48.722;9.110;2023-07-29T10:30:47;24.20;99.90
10678;DHT22;5387;48.722;9.110;2023-07-29T10:33:14;24.20;99.90
10678;DHT22;5387;48.722;9.110;2023-07-29T10:35:41;24.00;99.90
10678;DHT22;5387;48.722;9.110;2023-07-29T10:38:08;24.10;99.90
10678;DHT22;5387;48.722;9.110;2023-07-29T10:40:46;23.90;99.90
10678;DHT22;5387;48.722;9.110;2023-07-29T10:43:24;24.10;99.90
10678;DHT22;5387;48.722;9.110;2023-07-29T10:45:52;23.90;99.90
10678;DHT22;5387;48.722;9.110;2023-07-29T10:48:39;23.70;99.90
10678;DHT22;5387;48.722;9.110;2023-07-29T10:51:23;23.90;99.90
10678;DHT22;5387;48.722;9.110;2023-07-29T10:53:53;24.10;99.90
10678;DHT22;5387;48.722;9.110;2023-07-29T10:56:26;24.10;99.90
10678;DHT22;5387;48.722;9.110;2023-07-29T10:58:56;24.60;99.90
10678;DHT22;5387;48.722;9.110;2023-07-29T11:01:27;24.80;99.90
10678;DHT22;5387;48.722;9.110;2023-07-29T11:07:21;25.10;99.90
10678;DHT22;5387;48.722;9.110;2023-07-29T11:09:57;25.20;99.90
10678;DHT22;5387;48.722;9.110;2023-07-29T11:12:38;25.00;99.90
10678;DHT22;5387;48.722;9.110;2023-07-29T11:15:23;24.60;99.90
10678;DHT22;5387;48.722;9.110;2023-07-29T11:17:52;24.30;99.90
10678;DHT22;5387;48.722;9.110;2023-07-29T11:20:20;24.30;99.90
10678;DHT22;5387;48.722;9.110;2023-07-29T11:22:48;24.80;99.90
10678;DHT22;5387;48.722;9.110;2023-07-29T11:25:16;25.00;99.90
10678;DHT22;5387;48.722;9.110;2023-07-29T11:27:44;25.10;99.90
10678;DHT22;5387;48.722;9.110;2023-07-29T11:30:13;25.20;99.90
10678;DHT22;5387;48.722;9.110;2023-07-29T11:32:42;25.40;99.90
10678;DHT22;5387;48.722;9.110;2023-07-29T11:35:11;25.30;99.90
10678;DHT22;5387;48.722;9.110;2023-07-29T11:37:39;25.10;99.90
10678;DHT22;5387;48.722;9.110;2023-07-29T11:40:06;25.10;99.90
10678;DHT22;5387;48.722;9.110;2023-07-29T11:42:36;25.50;99.90
10678;DHT22;5387;48.722;9.110;2023-07-29T11:45:04;25.80;99.90
10678;DHT22;5387;48.722;9.110;2023-07-29T11:47:33;25.50;99.90
10678;DHT22;5387;48.722;9.110;2023-07-29T11:50:03;25.70;99.90
10678;DHT22;5387;48.722;9.110;2023-07-29T11:52:31;25.70;99.90
10678;DHT22;5387;48.722;9.110;2023-07-29T11:54:59;26.10;99.90
10678;DHT22;5387;48.722;9.110;2023-07-29T11:57:26;26.80;99.90
10678;DHT22;5387;48.722;9.110;2023-07-29T11:59:53;26.90;99.90
10678;DHT22;5387;48.722;9.110;2023-07-29T12:02:20;27.10;99.90
10678;DHT22;5387;48.722;9.110;2023-07-29T12:04:50;27.70;99.90
10678;DHT22;5387;48.722;9.110;2023-07-29T12:07:18;28.00;99.90
10678;DHT22;5387;48.722;9.110;2023-07-29T12:09:46;28.70;99.90
10678;DHT22;5387;48.722;9.110;2023-07-29T12:12:13;28.60;99.90
10678;DHT22;5387;48.722;9.110;2023-07-29T12:14:44;28.40;99.90
10678;DHT22;5387;48.722;9.110;2023-07-29T12:17:10;29.20;99.90
10678;DHT22;5387;48.722;9.110;2023-07-29T12:19:38;28.90;99.90
10678;DHT22;5387;48.722;9.110;2023-07-29T12:22:08;29.60;99.90
10678;DHT22;5387;48.722;9.110;2023-07-29T12:24:36;29.90;99.90
10678;DHT22;5387;48.722;9.110;2023-07-29T12:27:04;29.90;99.90
10678;DHT22;5387;48.722;9.110;2023-07-29T12:29:32;30.30;99.90
10678;DHT22;5387;48.722;9.110;2023-07-29T12:32:00;30.00;99.90
10678;DHT22;5387;48.722;9.110;2023-07-29T12:34:28;29.60;99.90
10678;DHT22;5387;48.722;9.110;2023-07-29T12:36:56;29.50;99.90
10678;DHT22;5387;48.722;9.110;2023-07-29T12:39:26;29.00;99.90
10678;DHT22;5387;48.722;9.110;2023-07-29T12:41:56;29.40;99.90
10678;DHT22;5387;48.722;9.110;2023-07-29T12:44:24;29.80;99.90
10678;DHT22;5387;48.722;9.110;2023-07-29T12:46:51;29.40;99.90
10678;DHT22;5387;48.722;9.110;2023-07-29T12:49:18;28.60;99.90
10678;DHT22;5387;48.722;9.110;2023-07-29T12:51:45;28.40;99.90
10678;DHT22;5387;48.722;9.110;2023-07-29T12:54:12;28.00;99.90
10678;DHT22;5387;48.722;9.110;2023-07-29T12:56:40;28.40;99.90
10678;DHT22;5387;48.722;9.110;2023-07-29T12:59:07;28.50;99.90
10678;DHT22;5387;48.722;9.110;2023-07-29T13:01:34;28.40;99.90
10678;DHT22;5387;48.722;9.110;2023-07-29T13:04:01;28.60;99.90
10678;DHT22;5387;48.722;9.110;2023-07-29T13:06:27;28.30;99.90
10678;DHT22;5387;48.722;9.110;2023-07-29T13:08:57;27.90;99.90
10678;DHT22;5387;48.722;9.110;2023-07-29T13:11:24;28.70;99.90
10678;DHT22;5387;48.722;9.110;2023-07-29T13:13:53;29.10;99.90
10678;DHT22;5387;48.722;9.110;2023-07-29T13:16:19;28.70;99.90
10678;DHT22;5387;48.722;9.110;2023-07-29T13:18:46;28.60;99.90
10678;DHT22;5387;48.722;9.110;2023-07-29T13:21:13;28.00;99.90
10678;DHT22;5387;48.722;9.110;2023-07-29T13:23:40;28.10;99.90
10678;DHT22;5387;48.722;9.110;2023-07-29T13:26:06;28.00;99.90
10678;DHT22;5387;48.722;9.110;2023-07-29T13:28:33;27.70;99.90
10678;DHT22;5387;48.722;9.110;2023-07-29T13:31:02;27.20;99.90
10678;DHT22;5387;48.722;9.110;2023-07-29T13:33:29;27.10;99.90
10678;DHT22;5387;48.722;9.110;2023-07-29T13:35:59;27.00;99.90
10678;DHT22;5387;48.722;9.110;2023-07-29T13:38:26;26.50;99.90
10678;DHT22;5387;48.722;9.110;2023-07-29T13:40:52;26.40;99.90
10678;DHT22;5387;48.722;9.110;2023-07-29T13:43:19;26.50;99.90
10678;DHT22;5387;48.722;9.110;2023-07-29T13:45:46;26.60;99.90
10678;DHT22;5387;48.722;9.110;2023-07-29T13:48:16;26.70;99.90
10678;DHT22;5387;48.722;9.110;2023-07-29T13:50:43;27.00;99.90
10678;DHT22;5387;48.722;9.110;2023-07-29T13:53:09;26.80;99.90
10678;DHT22;5387;48.722;9.110;2023-07-29T13:55:36;26.50;99.90
10678;DHT22;5387;48.722;9.110;2023-07-29T13:58:03;26.40;99.90
10678;DHT22;5387;48.722;9.110;2023-07-29T14:00:30;26.40;99.90
10678;DHT22;5387;48.722;9.110;2023-07-29T14:02:57;26.30;99.90
10678;DHT22;5387;48.722;9.110;2023-07-29T14:05:25;26.30;99.90
10678;DHT22;5387;48.722;9.110;2023-07-29T14:07:51;25.90;99.90
10678;DHT22;5387;48.722;9.110;2023-07-29T14:10:18;25.90;99.90
10678;DHT22;5387;48.722;9.110;2023-07-29T14:12:45;25.80;99.90
10678;DHT22;5387;48.722;9.110;2023-07-29T14:15:12;25.70;99.90
10678;DHT22;5387;48.722;9.110;2023-07-29T14:17:38;25.50;99.90
10678;DHT22;5387;48.722;9.110;2023-07-29T14:20:06;25.50;99.90
10678;DHT22;5387;48.722;9.110;2023-07-29T14:22:35;25.30;99.90
10678;DHT22;5387;48.722;9.110;2023-07-29T14:25:03;25.20;99.90
10678;DHT22;5387;48.722;9.110;2023-07-29T14:27:29;25.00;99.90
10678;DHT22;5387;48.722;9.110;2023-07-29T14:29:56;25.10;99.90
10678;DHT22;5387;48.722;9.110;2023-07-29T14:32:23;25.20;99.90
10678;DHT22;5387;48.722;9.110;2023-07-29T14:34:50;25.50;99.90
10678;DHT22;5387;48.722;9.110;2023-07-29T14:37:17;25.70;99.90
10678;DHT22;5387;48.722;9.110;2023-07-29T14:39:45;25.80;99.90
10678;DHT22;5387;48.722;9.110;2023-07-29T14:42:12;25.70;99.90
10678;DHT22;5387;48.722;9.110;2023-07-29T14:44:40;25.40;99.90
10678;DHT22;5387;48.722;9.110;2023-07-29T14:47:07;25.10;99.90
10678;DHT22;5387;48.722;9.110;2023-07-29T14:49:34;25.10;99.90
10678;DHT22;5387;48.722;9.110;2023-07-29T14:52:01;25.20;99.90
10678;DHT22;5387;48.722;9.110;2023-07-29T14:54:28;25.40;99.90
10678;DHT22;5387;48.722;9.110;2023-07-29T14:56:56;25.30;99.90
10678;DHT22;5387;48.722;9.110;2023-07-29T14:59:23;25.40;99.90
10678;DHT22;5387;48.722;9.110;2023-07-29T15:01:49;25.40;99.90
10678;DHT22;5387;48.722;9.110;2023-07-29T15:04:16;25.40;99.90
10678;DHT22;5387;48.722;9.110;2023-07-29T15:06:43;25.50;99.90
10678;DHT22;5387;48.722;9.110;2023-07-29T15:09:10;25.40;99.90
10678;DHT22;5387;48.722;9.110;2023-07-29T15:11:37;25.20;99.90
10678;DHT22;5387;48.722;9.110;2023-07-29T15:14:05;25.20;99.90
10678;DHT22;5387;48.722;9.110;2023-07-29T15:16:32;25.20;99.90
10678;DHT22;5387;48.722;9.110;2023-07-29T15:19:01;25.30;99.90
10678;DHT22;5387;48.722;9.110;2023-07-29T15:21:28;25.30;99.90
10678;DHT22;5387;48.722;9.110;2023-07-29T15:23:55;25.30;99.90
10678;DHT22;5387;48.722;9.110;2023-07-29T15:26:21;25.40;99.90
10678;DHT22;5387;48.722;9.110;2023-07-29T15:28:48;25.40;99.90
10678;DHT22;5387;48.722;9.110;2023-07-29T15:31:17;25.50;99.90
10678;DHT22;5387;48.722;9.110;2023-07-29T15:33:44;25.50;99.90
10678;DHT22;5387;48.722;9.110;2023-07-29T15:36:10;25.40;99.90
10678;DHT22;5387;48.722;9.110;2023-07-29T15:38:37;25.60;99.90
10678;DHT22;5387;48.722;9.110;2023-07-29T15:41:04;25.70;99.90
10678;DHT22;5387;48.722;9.110;2023-07-29T15:43:31;25.40;99.90
10678;DHT22;5387;48.722;9.110;2023-07-29T15:45:57;25.20;99.90
10678;DHT22;5387;48.722;9.110;2023-07-29T15:48:26;25.40;99.90
10678;DHT22;5387;48.722;9.110;2023-07-29T15:50:52;25.40;99.90
10678;DHT22;5387;48.722;9.110;2023-07-29T15:53:19;25.30;99.90
10678;DHT22;5387;48.722;9.110;2023-07-29T15:55:46;25.20;99.90
10678;DHT22;5387;48.722;9.110;2023-07-29T15:58:13;25.10;99.90
10678;DHT22;5387;48.722;9.110;2023-07-29T16:00:40;25.10;99.90
10678;DHT22;5387;48.722;9.110;2023-07-29T16:03:06;25.10;99.90
10678;DHT22;5387;48.722;9.110;2023-07-29T16:05:35;25.00;99.90